Latest Weather Observations for Longerenong

IDV60801

Issued at 5:02 am EST Sunday 30 April 2017 (issued every 30 minutes, with the page automatically refreshed every 10 minutes)

About weather observations | Map of weather stations | Latest weather observations for VIC | Other Formats
Station Details ID: 079028 Name: LONGERENONG Lat: -36.67 Lon: 142.30 Height: 133.0 m
Data from the previous 72 hours. | See also: Recent months at Longerenong
Date/Time
EST
Temp
°C
App
Temp
°C
Dew
Point
°C
Rel
Hum
%
Delta-T
°C
Wind Press
QNH
hPa
Press
MSL
hPa
Rain since
9am
mm
Dir  Spd
km/h
Gust
km/h
Spd
kts
Gust
kts
30/05:00am - - - - - ESE 4 6 2 3 - - 0.0
30/04:30am - - - - - NNE 4 7 2 4 - - 0.0
30/04:00am - - - - - NE 2 6 1 3 - - 0.0
30/03:30am - - - - - W 2 4 1 2 - - 0.0
30/03:00am - - - - - W 6 9 3 5 - - 0.0
30/02:30am - - - - - W 2 2 1 1 - - 0.0
30/02:00am - - - - - W 4 9 2 5 - - 0.0
30/01:30am - - - - - SW 6 11 3 6 - - 0.0
30/01:00am - - - - - WSW 6 7 3 4 - - 0.0
30/12:30am - - - - - SW 6 7 3 4 - - 0.0
30/12:00am - - - - - WSW 6 9 3 5 - - 0.0
 
Date/Time
EST
Temp
°C
App
Temp
°C
Dew
Point
°C
Rel
Hum
%
Delta-T
°C
Wind Press
QNH
hPa
Press
MSL
hPa
Rain since
9am
mm
Dir  Spd
km/h
Gust
km/h
Spd
kts
Gust
kts
29/11:30pm - - - - - W 4 6 2 3 - - 0.0
29/11:00pm - - - - - WSW 2 4 1 2 - - 0.0
29/10:30pm - - - - - SSW 4 4 2 2 - - 0.0
29/10:00pm - - - - - SSW 2 4 1 2 - - 0.0
29/09:30pm - - - - - WSW 4 6 2 3 - - 0.0
29/09:00pm - - - - - SSW 6 6 3 3 - - 0.0
29/08:30pm - - - - - SSW 4 6 2 3 - - 0.0
29/08:00pm - - - - - SW 7 9 4 5 - - 0.0
29/07:30pm - - - - - SW 6 9 3 5 - - 0.0
29/07:00pm - - - - - SW 9 11 5 6 - - 0.0
29/06:30pm - - - - - WSW 6 9 3 5 - - 0.0
29/06:00pm - - - - - WSW 6 7 3 4 - - 0.0
29/05:30pm - - - - - WSW 7 9 4 5 - - 0.0
29/05:00pm - - - - - WSW 7 13 4 7 - - 0.0
29/04:30pm - - - - - SSW 9 15 5 8 - - 0.0
29/04:00pm - - - - - WSW 13 20 7 11 - - 0.0
29/03:30pm - - - - - SW 15 19 8 10 - - 0.0
29/03:00pm - - - - - SW 11 15 6 8 - - 0.0
29/02:30pm - - - - - WSW 11 17 6 9 - - 0.0
29/02:00pm - - - - - WSW 15 20 8 11 - - 0.0
29/01:30pm - - - - - WSW 17 22 9 12 - - 0.0
29/01:00pm - - - - - WSW 17 22 9 12 - - 0.0
29/12:30pm - - - - - WSW 13 20 7 11 - - 0.0
29/12:00pm - - - - - WSW 13 20 7 11 - - 0.0
29/11:30am - - - - - W 19 24 10 13 - - 0.0
29/11:00am - - - - - W 15 22 8 12 - - 0.0
29/10:30am - - - - - W 15 22 8 12 - - 0.0
29/10:00am - - - - - W 17 20 9 11 - - 0.0
29/09:30am - - - - - WSW 19 24 10 13 - - 0.0
29/09:00am - - - - - W 13 19 7 10 - - 0.0
29/08:30am - - - - - W 11 15 6 8 - - 0.0
29/08:00am - - - - - W 9 11 5 6 - - 0.0
29/07:30am - - - - - WNW 11 15 6 8 - - 0.0
29/07:00am - - - - - W 9 13 5 7 - - 0.0
29/06:30am - - - - - W 9 15 5 8 - - 0.0
29/06:00am - - - - - W 11 15 6 8 - - 0.0
29/05:30am - - - - - W 9 13 5 7 - - 0.0
29/05:00am - - - - - W 7 7 4 4 - - 0.0
29/04:30am - - - - - W 9 13 5 7 - - 0.0
29/04:00am - - - - - W 7 9 4 5 - - 0.0
29/03:30am - - - - - W 7 9 4 5 - - 0.0
29/03:00am - - - - - WSW 9 13 5 7 - - 0.0
29/02:30am - - - - - W 11 15 6 8 - - 0.0
29/02:00am - - - - - WNW 9 11 5 6 - - 0.0
29/01:30am - - - - - WNW 9 13 5 7 - - 0.0
29/01:00am - - - - - WNW 13 17 7 9 - - 0.0
29/12:30am - - - - - W 9 11 5 6 - - 0.0
29/12:00am - - - - - W 9 13 5 7 - - 0.0
 
Date/Time
EST
Temp
°C
App
Temp
°C
Dew
Point
°C
Rel
Hum
%
Delta-T
°C
Wind Press
QNH
hPa
Press
MSL
hPa
Rain since
9am
mm
Dir  Spd
km/h
Gust
km/h
Spd
kts
Gust
kts
28/11:30pm - - - - - W 7 11 4 6 - - 0.0
28/11:00pm - - - - - WSW 11 13 6 7 - - 0.0
28/10:30pm - - - - - WSW 9 13 5 7 - - 0.0
28/10:00pm - - - - - W 11 15 6 8 - - 0.0
28/09:30pm - - - - - W 7 11 4 6 - - 0.0
28/09:00pm - - - - - WSW 9 13 5 7 - - 0.0
28/08:30pm - - - - - WSW 9 13 5 7 - - 0.0
28/08:00pm - - - - - WSW 13 19 7 10 - - 0.0
28/07:30pm - - - - - WSW 15 20 8 11 - - 0.0
28/07:00pm - - - - - WSW 19 26 10 14 - - 0.0
28/06:30pm - - - - - WSW 15 20 8 11 - - 0.0
28/06:00pm - - - - - SW 13 19 7 10 - - 0.0
28/05:30pm - - - - - SW 17 26 9 14 - - 0.0
28/05:00pm - - - - - WSW 13 17 7 9 - - 0.0
28/04:30pm - - - - - SW 20 28 11 15 - - 0.0
28/04:00pm - - - - - W 11 17 6 9 - - 0.0
28/03:30pm - - - - - WSW 19 30 10 16 - - 0.0
28/03:00pm - - - - - W 17 24 9 13 - - 0.0
28/02:30pm - - - - - WSW 19 24 10 13 - - 0.0
28/02:00pm - - - - - WSW 15 20 8 11 - - 0.0
28/01:30pm - - - - - WSW 19 24 10 13 - - 0.0
28/01:00pm - - - - - W 19 26 10 14 - - 0.0
28/12:30pm - - - - - WSW 20 24 11 13 - - 0.0
28/12:00pm - - - - - WSW 20 26 11 14 - - 0.0
28/11:30am - - - - - W 17 24 9 13 - - 0.0
28/11:00am - - - - - WSW 19 24 10 13 - - 0.0
28/10:30am - - - - - W 17 20 9 11 - - 0.0
28/10:00am - - - - - W 17 20 9 11 - - 0.0
28/09:30am - - - - - WNW 17 20 9 11 - - 0.0
28/09:00am - - - - - WNW 13 17 7 9 - - 0.2
28/08:30am - - - - - W 13 17 7 9 - - 0.2
28/08:00am - - - - - WNW 6 7 3 4 - - 0.2
28/07:30am - - - - - W 4 6 2 3 - - 0.2
28/07:00am - - - - - W 2 4 1 2 - - 0.2
28/06:30am - - - - - W 2 6 1 3 - - 0.2
28/06:00am - - - - - W 6 9 3 5 - - 0.2
28/05:30am - - - - - NW 6 7 3 4 - - 0.2
28/05:00am - - - - - WNW 6 9 3 5 - - 0.2
28/04:30am - - - - - NW 4 7 2 4 - - 0.2
28/04:00am - - - - - NW 6 9 3 5 - - 0.2
28/03:30am - - - - - WNW 9 11 5 6 - - 0.0
28/03:00am - - - - - WNW 7 9 4 5 - - 0.0
28/02:30am - - - - - NW 7 9 4 5 - - 0.0
28/02:00am - - - - - WNW 7 9 4 5 - - 0.0
28/01:30am - - - - - WNW 6 9 3 5 - - 0.0
28/01:00am - - - - - W 6 7 3 4 - - 0.0
28/12:30am - - - - - W 7 9 4 5 - - 0.0
28/12:00am - - - - - W 9 13 5 7 - - 0.0
 
Date/Time
EST
Temp
°C
App
Temp
°C
Dew
Point
°C
Rel
Hum
%
Delta-T
°C
Wind Press
QNH
hPa
Press
MSL
hPa
Rain since
9am
mm
Dir  Spd
km/h
Gust
km/h
Spd
kts
Gust
kts
27/11:30pm - - - - - WNW 11 15 6 8 - - 0.0
27/11:00pm - - - - - WNW 9 11 5 6 - - 0.0
27/10:30pm - - - - - WNW 9 11 5 6 - - 0.0
27/10:00pm - - - - - WNW 7 9 4 5 - - 0.0
27/09:30pm - - - - - NW 7 9 4 5 - - 0.0
27/09:00pm - - - - - WNW 7 7 4 4 - - 0.0
27/08:30pm - - - - - WNW 6 6 3 3 - - 0.0
27/08:00pm - - - - - WNW 6 7 3 4 - - 0.0
27/07:30pm - - - - - W 4 6 2 3 - - 0.0
27/07:00pm - - - - - WSW 9 13 5 7 - - 0.0
27/06:30pm - - - - - WSW 9 11 5 6 - - 0.0
27/06:00pm - - - - - WSW 9 15 5 8 - - 0.0
27/05:30pm - - - - - SW 13 17 7 9 - - 0.0
27/05:00pm - - - - - SW 13 17 7 9 - - 0.0
27/04:30pm - - - - - SSW 17 24 9 13 - - 0.0
27/04:00pm - - - - - WSW 17 26 9 14 - - 0.0
27/03:30pm - - - - - SW 22 32 12 17 - - 0.0
27/03:00pm - - - - - SW 19 26 10 14 - - 0.0
27/02:30pm - - - - - SW 22 28 12 15 - - 0.0
27/02:00pm - - - - - SSW 24 35 13 19 - - 0.0
27/01:30pm - - - - - SW 19 30 10 16 - - 0.0
27/01:00pm - - - - - SW 20 30 11 16 - - 0.0
27/12:30pm - - - - - SSW 20 30 11 16 - - 0.0
27/12:00pm - - - - - SSW 19 28 10 15 - - 0.0
27/11:30am - - - - - SW 19 28 10 15 - - 0.0
27/11:00am - - - - - SW 17 26 9 14 - - 0.0
27/10:30am - - - - - SW 17 22 9 12 - - 0.0
27/10:00am - - - - - SW 15 20 8 11 - - 0.0
27/09:30am - - - - - SW 15 19 8 10 - - 0.0
27/09:00am - - - - - SW 15 19 8 10 - - 0.8
27/08:30am - - - - - SW 11 17 6 9 - - 0.8
27/08:00am - - - - - WSW 11 13 6 7 - - 0.8
27/07:30am - - - - - SW 9 13 5 7 - - 0.8
27/07:00am - - - - - SW 6 9 3 5 - - 0.8
27/06:30am - - - - - SSW 4 4 2 2 - - 0.8
27/06:00am - - - - - SSE 4 6 2 3 - - 0.8
27/05:30am 2.9 0.0 2.6 98 0.1 WSW 7 9 4 5 - - 0.8

Other Formats:

Comma delimited format used in spreadsheet applications
http://www.bom.gov.au/fwo/IDV60801/IDV60801.95835.axf

JavaScript Object Notation format (JSON) in row-major order
http://www.bom.gov.au/fwo/IDV60801/IDV60801.95835.json